Time;durP1;ratioP1;P1;durP2;ratioP2;P2;SDS_P1;SDS_P2;PMS_P1;PMS_P2;Temp;Humidity;BMP_temperature;BMP_pressure;BME280_temperature;BME280_humidity;BME280_pressure;Samples;Min_cycle;Max_cycle;Signal;HPM_P1;HPM_P2
2021/08/23 00:00:19;;;;;;;1.70;1.60;;;11.60;93.10;;;;;;2040906;29;20188;-68
2021/08/23 00:01:20;;;;;;;1.70;1.30;;;11.60;93.10;;;;;;2048725;29;20180;-68
2021/08/23 00:02:21;;;;;;;1.50;1.40;;;11.60;93.10;;;;;;2049427;28;20179;-68
2021/08/23 00:03:21;;;;;;;1.30;1.20;;;11.70;93.00;;;;;;2049460;28;20658;-68
2021/08/23 00:04:22;;;;;;;1.47;1.23;;;11.60;93.10;;;;;;2049383;29;20195;-68
2021/08/23 00:05:23;;;;;;;1.63;1.27;;;11.60;93.10;;;;;;2049520;28;20183;-68
2021/08/23 00:06:23;;;;;;;1.90;1.50;;;11.60;93.10;;;;;;2049509;28;20191;-68
2021/08/23 00:07:24;;;;;;;2.60;1.70;;;11.60;93.10;;;;;;2045383;29;20279;-67
2021/08/23 00:08:25;;;;;;;1.40;1.30;;;11.60;93.20;;;;;;2039874;29;20228;-68
2021/08/23 00:09:28;;;;;;;6.50;1.40;;;11.60;93.30;;;;;;2040456;29;20204;-68
2021/08/23 00:10:28;;;;;;;0.98;0.98;;;11.50;93.40;;;;;;2048703;29;20195;-67
2021/08/23 00:11:29;;;;;;;1.60;1.23;;;11.50;93.40;;;;;;2048884;29;20251;-68
2021/08/23 00:12:30;;;;;;;1.77;1.30;;;11.50;93.30;;;;;;2048550;29;20238;-68
2021/08/23 00:13:31;;;;;;;2.28;1.90;;;11.50;93.30;;;;;;2049433;28;20186;-68
2021/08/23 00:14:32;;;;;;;2.20;1.30;;;11.50;93.30;;;;;;2048709;28;20175;-67
2021/08/23 00:15:33;;;;;;;2.37;1.70;;;11.50;93.30;;;;;;2048914;29;20183;-68
2021/08/23 00:16:35;;;;;;;1.37;1.27;;;11.50;93.30;;;;;;2040846;29;20676;-67
2021/08/23 00:17:35;;;;;;;2.45;1.42;;;11.40;93.20;;;;;;2033317;29;20189;-68
2021/08/23 00:18:36;;;;;;;1.20;1.10;;;11.40;93.20;;;;;;2048680;29;20607;-68
2021/08/23 00:19:37;;;;;;;1.00;0.97;;;11.40;93.20;;;;;;2040542;29;20208;-67
2021/08/23 00:20:50;;;;;;;2.30;1.67;;;11.40;93.30;;;;;;2040839;29;20224;-68
2021/08/23 00:22:00;;;;;;;3.65;1.27;;;11.40;93.70;;;;;;2048774;29;20160;-67
2021/08/23 00:23:02;;;;;;;4.28;1.23;;;11.30;94.00;;;;;;2048990;29;20168;-67
2021/08/23 00:24:07;;;;;;;1.30;1.13;;;11.30;94.00;;;;;;2048685;29;20182;-68
2021/08/23 00:25:08;;;;;;;4.15;1.50;;;11.30;93.90;;;;;;2041410;29;20200;-68
2021/08/23 00:26:08;;;;;;;2.25;1.45;;;11.40;93.90;;;;;;2048758;29;20175;-68
2021/08/23 00:27:09;;;;;;;1.33;1.23;;;11.30;93.70;;;;;;2049258;28;20222;-68
2021/08/23 00:28:12;;;;;;;3.30;1.87;;;11.40;93.60;;;;;;2049360;28;20210;-68
2021/08/23 00:29:12;;;;;;;1.70;1.10;;;11.40;93.50;;;;;;2048847;28;20202;-67
2021/08/23 00:30:15;;;;;;;1.43;1.30;;;11.30;93.50;;;;;;2048899;29;20635;-68
2021/08/23 00:31:16;;;;;;;1.63;1.25;;;11.30;93.40;;;;;;2048618;29;20310;-68
2021/08/23 00:32:17;;;;;;;1.50;1.40;;;11.30;93.30;;;;;;2049396;28;20591;-68
2021/08/23 00:33:18;;;;;;;3.40;1.80;;;11.30;93.30;;;;;;2048767;29;20255;-68
2021/08/23 00:34:19;;;;;;;2.33;1.63;;;11.30;93.40;;;;;;2048959;29;20742;-68
2021/08/23 00:35:20;;;;;;;2.25;1.45;;;11.30;93.40;;;;;;2049224;28;20187;-69
2021/08/23 00:36:20;;;;;;;2.43;1.23;;;11.30;93.40;;;;;;2048614;29;20199;-67
2021/08/23 00:37:21;;;;;;;1.80;0.90;;;11.30;93.50;;;;;;2048667;29;20179;-67
2021/08/23 00:38:22;;;;;;;2.35;1.10;;;11.20;93.50;;;;;;2049250;28;20179;-68
2021/08/23 00:39:23;;;;;;;1.40;0.93;;;11.20;93.40;;;;;;2048879;28;20191;-68
2021/08/23 00:40:25;;;;;;;3.53;1.40;;;11.20;93.40;;;;;;2049262;29;20658;-68
2021/08/23 00:41:25;;;;;;;1.90;1.45;;;11.10;94.00;;;;;;2048618;29;20234;-67
2021/08/23 00:42:26;;;;;;;2.80;1.53;;;11.10;93.60;;;;;;2048591;29;20183;-68
2021/08/23 00:43:27;;;;;;;1.77;1.30;;;11.10;93.50;;;;;;2048673;29;20230;-68
2021/08/23 00:44:28;;;;;;;1.17;1.07;;;11.10;93.90;;;;;;2048543;29;20171;-67
2021/08/23 00:45:29;;;;;;;1.50;1.38;;;11.10;93.50;;;;;;2048885;29;20176;-67
2021/08/23 00:46:32;;;;;;;1.55;1.45;;;11.00;93.50;;;;;;2040796;29;20211;-67
2021/08/23 00:47:32;;;;;;;2.90;1.80;;;11.00;93.70;;;;;;2041037;29;20187;-67
2021/08/23 00:48:34;;;;;;;1.23;0.90;;;11.00;93.70;;;;;;2040658;29;20581;-68
2021/08/23 00:49:35;;;;;;;2.70;1.25;;;11.00;93.60;;;;;;2048378;28;20231;-68
2021/08/23 00:50:36;;;;;;;1.60;1.50;;;11.00;93.60;;;;;;2049314;28;20187;-68
2021/08/23 00:51:36;;;;;;;2.20;1.07;;;11.00;93.60;;;;;;2048682;29;20439;-68
2021/08/23 00:52:37;;;;;;;1.43;1.20;;;10.90;93.70;;;;;;2048623;29;20699;-68
2021/08/23 00:53:38;;;;;;;2.30;1.23;;;10.90;93.70;;;;;;2049013;28;20191;-68
2021/08/23 00:54:39;;;;;;;1.25;1.10;;;10.90;93.60;;;;;;2050601;28;20184;-68
2021/08/23 00:55:40;;;;;;;1.40;1.30;;;10.90;93.70;;;;;;2049235;28;20583;-68
2021/08/23 00:56:41;;;;;;;2.07;1.13;;;10.80;93.80;;;;;;2049193;28;20302;-68
2021/08/23 00:57:42;;;;;;;1.53;1.10;;;10.80;93.80;;;;;;2049255;28;20651;-67
2021/08/23 00:58:43;;;;;;;1.67;1.52;;;10.80;93.80;;;;;;2048560;29;20211;-68
2021/08/23 00:59:43;;;;;;;3.03;1.17;;;10.80;93.80;;;;;;2048408;28;20192;-68
2021/08/23 01:00:51;;;;;;;1.63;1.40;;;10.70;93.70;;;;;;2048538;29;20176;-68
2021/08/23 01:02:30;;;;;;;2.80;1.10;;;10.80;93.60;;;;;;2033750;29;20276;-68
2021/08/23 01:04:18;;;;;;;1.35;1.17;;;10.70;93.70;;;;;;2037290;29;20296;-67
2021/08/23 01:05:26;;;;;;;1.90;1.30;;;10.60;93.90;;;;;;2028232;29;20209;-67
2021/08/23 01:06:30;;;;;;;1.05;0.95;;;10.60;94.10;;;;;;2033712;29;20193;-67
2021/08/23 01:07:50;;;;;;;2.05;1.67;;;10.50;94.10;;;;;;2033747;29;20205;-67
2021/08/23 01:09:04;;;;;;;1.67;1.08;;;10.50;94.20;;;;;;2044525;29;20176;-69
2021/08/23 01:10:14;;;;;;;1.67;1.58;;;10.50;94.30;;;;;;2050264;28;20207;-67
2021/08/23 01:11:18;;;;;;;2.67;1.60;;;10.50;94.60;;;;;;2050004;29;20176;-68
2021/08/23 01:12:19;;;;;;;2.05;1.85;;;10.60;94.80;;;;;;2042395;29;20238;-68
2021/08/23 01:13:22;;;;;;;2.57;1.37;;;10.50;94.60;;;;;;2050030;29;20598;-68
2021/08/23 01:14:22;;;;;;;2.33;1.85;;;10.60;94.70;;;;;;2049986;29;20694;-67
2021/08/23 01:15:23;;;;;;;2.23;1.73;;;10.60;94.60;;;;;;2034165;29;20223;-68
2021/08/23 01:16:24;;;;;;;1.63;1.53;;;10.60;94.60;;;;;;2042148;29;20208;-67
2021/08/23 01:17:25;;;;;;;2.40;1.93;;;10.70;94.60;;;;;;2050641;28;20419;-68
2021/08/23 01:18:26;;;;;;;1.33;1.23;;;10.70;94.60;;;;;;2050046;29;20668;-68
2021/08/23 01:19:30;;;;;;;3.42;1.98;;;10.80;94.70;;;;;;2049750;28;20180;-67
2021/08/23 01:20:41;;;;;;;1.98;1.60;;;10.80;94.60;;;;;;2050648;29;20551;-68
2021/08/23 01:21:43;;;;;;;1.88;1.67;;;10.80;94.50;;;;;;2049878;29;20182;-67
2021/08/23 01:22:53;;;;;;;2.00;1.80;;;10.80;94.60;;;;;;2050101;29;20172;-67
2021/08/23 01:23:55;;;;;;;1.92;1.40;;;10.80;94.70;;;;;;2050031;29;20186;-67
2021/08/23 01:25:01;;;;;;;2.17;1.33;;;10.80;94.70;;;;;;2042400;29;20221;-67
2021/08/23 01:26:03;;;;;;;1.70;1.15;;;10.80;94.60;;;;;;2042704;29;20165;-67
2021/08/23 01:27:08;;;;;;;2.88;1.95;;;10.80;94.40;;;;;;2049989;29;20263;-68
2021/08/23 01:28:41;;;;;;;1.88;1.17;;;10.80;94.20;;;;;;2049885;29;20266;-68
2021/08/23 01:30:07;;;;;;;1.17;1.08;;;10.80;94.00;;;;;;2044590;28;21159;-68
2021/08/23 01:31:14;;;;;;;1.70;1.10;;;10.70;94.00;;;;;;2050651;28;20175;-68
2021/08/23 01:32:26;;;;;;;1.27;1.10;;;10.70;94.00;;;;;;2050448;29;20573;-68
2021/08/23 01:33:27;;;;;;;2.05;1.38;;;10.60;94.00;;;;;;2041970;29;20192;-67
2021/08/23 01:34:28;;;;;;;1.70;1.20;;;10.60;93.80;;;;;;2041914;29;20193;-67
2021/08/23 01:35:29;;;;;;;1.93;1.20;;;10.60;93.80;;;;;;2050510;29;20180;-68
2021/08/23 01:36:30;;;;;;;1.80;1.30;;;10.50;93.90;;;;;;2041798;29;20208;-67
2021/08/23 01:37:33;;;;;;;1.73;1.10;;;10.50;93.90;;;;;;2042178;29;20652;-67
2021/08/23 01:38:33;;;;;;;1.20;1.10;;;10.50;93.90;;;;;;2049794;29;20210;-67
2021/08/23 01:39:35;;;;;;;2.70;1.47;;;10.40;93.90;;;;;;2049589;28;20230;-68
2021/08/23 01:40:35;;;;;;;1.67;1.00;;;10.50;93.90;;;;;;2050392;28;20705;-67
2021/08/23 01:41:36;;;;;;;2.47;1.00;;;10.40;93.90;;;;;;2049818;29;20195;-67
2021/08/23 01:42:39;;;;;;;3.23;1.53;;;10.40;93.90;;;;;;2041948;29;20184;-68
2021/08/23 01:43:39;;;;;;;1.63;1.27;;;10.40;94.00;;;;;;2034173;29;20227;-67
2021/08/23 01:44:41;;;;;;;1.63;1.43;;;10.30;94.10;;;;;;2041898;29;20579;-68
2021/08/23 01:45:41;;;;;;;1.83;1.48;;;10.40;94.30;;;;;;2049882;29;20175;-67
2021/08/23 01:46:42;;;;;;;4.60;2.03;;;10.40;94.50;;;;;;2049875;29;20685;-68
2021/08/23 01:47:43;;;;;;;2.03;1.80;;;10.40;94.50;;;;;;2049907;29;20183;-68
2021/08/23 01:48:43;;;;;;;3.37;1.50;;;10.40;94.50;;;;;;2049673;29;20326;-67
2021/08/23 01:49:44;;;;;;;2.53;1.67;;;10.40;94.50;;;;;;2049621;28;20285;-67
2021/08/23 01:50:46;;;;;;;1.63;1.27;;;10.40;94.60;;;;;;2041828;29;20719;-68
2021/08/23 01:51:46;;;;;;;2.88;1.52;;;10.40;94.60;;;;;;2049801;29;20284;-68
2021/08/23 01:52:47;;;;;;;1.70;1.20;;;10.40;94.50;;;;;;2050291;29;20643;-68
2021/08/23 01:53:48;;;;;;;4.63;1.63;;;10.40;94.50;;;;;;2050387;28;20209;-67
2021/08/23 01:54:48;;;;;;;3.53;2.07;;;10.40;94.40;;;;;;2050476;28;20218;-67
2021/08/23 01:55:53;;;;;;;2.97;1.53;;;10.30;94.40;;;;;;2050427;28;20187;-67
2021/08/23 01:56:53;;;;;;;3.42;1.70;;;10.30;94.30;;;;;;2049554;29;20250;-67
2021/08/23 01:57:54;;;;;;;1.23;1.13;;;10.30;94.50;;;;;;2049829;29;20187;-67
2021/08/23 01:58:58;;;;;;;2.33;1.33;;;10.30;94.50;;;;;;2050114;28;20190;-68
2021/08/23 01:59:58;;;;;;;2.90;1.77;;;10.30;94.40;;;;;;2049772;28;20688;-67
2021/08/23 02:00:59;;;;;;;2.00;1.50;;;10.30;94.40;;;;;;2049577;29;20178;-67
2021/08/23 02:02:00;;;;;;;1.83;1.50;;;10.30;94.50;;;;;;2050319;29;20614;-67
2021/08/23 02:03:00;;;;;;;1.73;1.53;;;10.30;94.50;;;;;;2050251;28;20212;-68
2021/08/23 02:04:02;;;;;;;1.93;1.60;;;10.30;94.50;;;;;;2049629;29;20239;-67
2021/08/23 02:05:04;;;;;;;1.13;1.00;;;10.20;94.40;;;;;;2041746;29;20195;-67
2021/08/23 02:06:05;;;;;;;1.55;1.30;;;10.20;94.40;;;;;;2041809;29;20274;-67
2021/08/23 02:07:07;;;;;;;2.50;1.35;;;10.20;94.40;;;;;;2041695;29;20279;-68
2021/08/23 02:08:08;;;;;;;2.10;1.60;;;10.20;94.40;;;;;;2049695;29;20278;-67
2021/08/23 02:09:09;;;;;;;3.58;1.33;;;10.20;94.20;;;;;;2049312;28;20190;-68
2021/08/23 02:10:10;;;;;;;3.43;1.23;;;10.20;94.30;;;;;;2049550;29;20274;-67
2021/08/23 02:11:11;;;;;;;4.40;1.40;;;10.20;94.30;;;;;;2049558;29;20302;-67
2021/08/23 02:12:12;;;;;;;1.67;1.13;;;10.10;94.30;;;;;;2049698;29;20183;-67
2021/08/23 02:13:13;;;;;;;2.33;1.58;;;10.20;94.30;;;;;;2050290;29;20183;-67
2021/08/23 02:14:14;;;;;;;1.47;1.10;;;10.20;94.10;;;;;;2050220;28;20711;-68
2021/08/23 02:15:14;;;;;;;1.73;1.30;;;10.10;94.10;;;;;;2050164;29;20187;-67
2021/08/23 02:16:15;;;;;;;1.20;1.10;;;10.20;94.10;;;;;;2050036;28;20182;-67
2021/08/23 02:17:16;;;;;;;2.00;1.27;;;10.10;94.30;;;;;;2050195;28;20182;-67
2021/08/23 02:18:17;;;;;;;2.97;1.37;;;10.10;94.50;;;;;;2050166;28;20186;-67
2021/08/23 02:19:18;;;;;;;2.30;1.60;;;10.10;94.50;;;;;;2049529;28;20184;-67
2021/08/23 02:20:19;;;;;;;1.73;1.27;;;10.10;94.50;;;;;;2049635;28;20634;-67
2021/08/23 02:21:21;;;;;;;1.63;1.40;;;10.10;94.50;;;;;;2041462;29;20192;-67
2021/08/23 02:22:21;;;;;;;1.90;1.52;;;10.10;94.70;;;;;;2041711;29;20239;-68
2021/08/23 02:23:22;;;;;;;1.83;1.23;;;10.10;94.70;;;;;;2049653;29;20552;-67
2021/08/23 02:24:23;;;;;;;1.50;1.40;;;10.20;94.60;;;;;;2049518;29;20220;-67
2021/08/23 02:25:24;;;;;;;2.20;1.50;;;10.20;94.80;;;;;;2049563;29;20457;-68
2021/08/23 02:26:25;;;;;;;2.93;1.50;;;10.20;94.80;;;;;;2049457;29;20592;-67
2021/08/23 02:27:25;;;;;;;1.43;1.33;;;10.20;94.80;;;;;;2050196;29;20182;-67
2021/08/23 02:28:26;;;;;;;2.10;1.90;;;10.30;94.80;;;;;;2049392;29;20176;-67
2021/08/23 02:29:27;;;;;;;3.43;1.80;;;10.30;94.60;;;;;;2041457;29;20553;-67
2021/08/23 02:30:28;;;;;;;1.80;1.40;;;10.30;94.70;;;;;;2049454;29;20548;-68
2021/08/23 02:31:28;;;;;;;2.20;1.43;;;10.30;94.50;;;;;;2050166;28;20187;-67
2021/08/23 02:32:29;;;;;;;1.63;1.37;;;10.40;94.60;;;;;;2049446;29;20654;-67
2021/08/23 02:33:30;;;;;;;1.60;1.50;;;10.40;94.50;;;;;;2049649;29;20186;-68
2021/08/23 02:34:30;;;;;;;1.67;1.53;;;10.40;94.50;;;;;;2050087;28;20179;-67
2021/08/23 02:35:31;;;;;;;2.27;1.70;;;10.30;94.50;;;;;;2050120;28;20726;-67
2021/08/23 02:36:34;;;;;;;4.88;1.92;;;10.40;94.60;;;;;;2049955;28;20757;-68
2021/08/23 02:37:34;;;;;;;1.75;1.52;;;10.40;94.60;;;;;;2050031;28;20291;-68
2021/08/23 02:38:35;;;;;;;2.13;1.63;;;10.40;94.60;;;;;;2049960;28;20187;-67
2021/08/23 02:39:36;;;;;;;1.97;1.43;;;10.40;94.60;;;;;;2049805;28;20204;-67
2021/08/23 02:40:36;;;;;;;1.93;1.47;;;10.50;94.60;;;;;;2049356;29;20191;-67
2021/08/23 02:41:37;;;;;;;5.13;2.23;;;10.50;94.60;;;;;;2049478;29;20183;-68
2021/08/23 02:42:39;;;;;;;4.53;1.67;;;10.50;94.60;;;;;;2050067;28;20207;-67
2021/08/23 02:43:39;;;;;;;1.92;1.48;;;10.50;94.70;;;;;;2049955;28;20197;-67
2021/08/23 02:44:40;;;;;;;3.70;2.00;;;10.60;94.70;;;;;;2049390;29;20224;-67
2021/08/23 02:45:41;;;;;;;1.93;1.50;;;10.60;94.70;;;;;;2049490;29;20267;-67
2021/08/23 02:46:41;;;;;;;1.87;1.70;;;10.70;94.80;;;;;;2049301;29;20707;-67
2021/08/23 02:47:42;;;;;;;2.90;1.40;;;10.70;94.80;;;;;;2049380;29;20270;-67
2021/08/23 02:48:45;;;;;;;1.87;1.30;;;10.70;95.10;;;;;;2049869;28;20183;-67
2021/08/23 02:49:45;;;;;;;1.52;1.25;;;10.80;95.10;;;;;;2049777;28;20206;-67
2021/08/23 02:50:46;;;;;;;1.43;1.33;;;10.90;95.10;;;;;;2052375;28;20209;-67
2021/08/23 02:51:47;;;;;;;1.83;1.53;;;11.10;95.10;;;;;;2050119;28;20214;-68
2021/08/23 02:52:47;;;;;;;1.30;1.10;;;11.10;94.80;;;;;;2049441;29;20205;-67
2021/08/23 02:53:48;;;;;;;1.10;1.00;;;11.20;94.80;;;;;;2049371;29;20186;-67
2021/08/23 02:54:49;;;;;;;1.80;1.13;;;11.20;94.80;;;;;;2049768;29;20180;-68
2021/08/23 02:55:49;;;;;;;1.30;1.20;;;11.30;94.80;;;;;;2049720;28;20271;-67
2021/08/23 02:56:50;;;;;;;1.40;1.17;;;11.40;94.70;;;;;;2049229;29;20653;-68
2021/08/23 02:57:51;;;;;;;1.47;1.20;;;11.40;94.50;;;;;;2049203;29;20187;-67
2021/08/23 02:58:51;;;;;;;1.33;1.10;;;11.50;94.40;;;;;;2048166;28;20195;-68
2021/08/23 02:59:52;;;;;;;4.53;1.50;;;11.50;94.30;;;;;;2049690;28;20206;-67
2021/08/23 03:00:53;;;;;;;2.33;1.57;;;11.60;94.20;;;;;;2049714;28;20203;-67
2021/08/23 03:01:53;;;;;;;1.37;1.10;;;11.60;94.20;;;;;;2049967;28;20231;-67
2021/08/23 03:02:54;;;;;;;1.47;1.10;;;11.70;94.20;;;;;;2049148;29;20242;-67
2021/08/23 03:03:55;;;;;;;1.23;1.13;;;11.70;94.10;;;;;;2049047;29;20190;-68
2021/08/23 03:04:56;;;;;;;2.77;1.53;;;11.80;94.00;;;;;;2049061;28;20180;-67
2021/08/23 03:05:56;;;;;;;1.88;0.70;;;11.80;94.00;;;;;;2049037;29;20180;-67
2021/08/23 03:06:57;;;;;;;1.50;0.90;;;11.80;94.00;;;;;;2049651;28;20183;-67
2021/08/23 03:07:58;;;;;;;0.90;0.90;;;11.80;94.00;;;;;;2049641;29;20212;-67
2021/08/23 03:08:58;;;;;;;1.20;1.10;;;11.80;93.90;;;;;;2049455;28;20203;-67
2021/08/23 03:09:59;;;;;;;1.43;1.23;;;11.80;93.90;;;;;;2048955;28;20195;-67
2021/08/23 03:11:13;;;;;;;1.30;1.10;;;11.80;93.60;;;;;;2048936;29;20247;-67
2021/08/23 03:12:15;;;;;;;1.05;0.95;;;11.80;93.60;;;;;;2049677;28;20179;-67
2021/08/23 03:13:16;;;;;;;1.42;1.00;;;11.80;93.60;;;;;;2049563;28;20654;-67
2021/08/23 03:14:16;;;;;;;4.07;0.93;;;11.80;93.60;;;;;;2049563;29;20183;-67
2021/08/23 03:15:17;;;;;;;1.90;1.37;;;11.90;93.60;;;;;;2049535;29;20188;-67
2021/08/23 03:16:18;;;;;;;1.17;0.90;;;11.80;93.40;;;;;;2048855;29;20184;-67
2021/08/23 03:17:20;;;;;;;5.23;1.00;;;11.80;93.50;;;;;;2048924;29;20270;-67
2021/08/23 03:18:21;;;;;;;1.30;1.13;;;11.80;93.40;;;;;;2049538;28;20658;-67
2021/08/23 03:19:21;;;;;;;1.20;1.07;;;11.80;93.30;;;;;;2048564;28;20176;-67
2021/08/23 03:20:22;;;;;;;2.00;1.13;;;11.90;93.20;;;;;;2041094;29;20263;-67
2021/08/23 03:21:23;;;;;;;0.80;0.73;;;11.90;93.20;;;;;;2048913;29;20211;-67
2021/08/23 03:22:24;;;;;;;1.05;0.95;;;11.90;93.20;;;;;;2048878;28;20270;-67
2021/08/23 03:23:24;;;;;;;2.40;1.17;;;11.90;93.00;;;;;;2048808;29;20729;-67
2021/08/23 03:24:25;;;;;;;0.80;0.80;;;11.90;92.90;;;;;;2049551;28;20207;-67
2021/08/23 03:25:26;;;;;;;3.73;1.50;;;11.90;92.90;;;;;;2049485;28;20267;-67
2021/08/23 03:26:27;;;;;;;1.70;1.20;;;12.00;92.90;;;;;;2049515;28;20187;-67
2021/08/23 03:27:27;;;;;;;1.63;0.90;;;11.90;93.00;;;;;;2049418;28;20176;-67
2021/08/23 03:28:29;;;;;;;0.97;0.87;;;12.00;93.10;;;;;;2049538;28;20180;-67
2021/08/23 03:29:29;;;;;;;1.48;1.17;;;12.00;93.00;;;;;;2048512;28;20211;-67
2021/08/23 03:30:30;;;;;;;1.33;0.53;;;12.00;92.90;;;;;;2040942;29;20177;-67
2021/08/23 03:31:31;;;;;;;2.77;0.90;;;12.00;92.90;;;;;;2048734;28;20182;-68
2021/08/23 03:32:33;;;;;;;1.70;1.10;;;12.00;92.80;;;;;;2049466;28;20184;-67
2021/08/23 03:33:35;;;;;;;2.60;1.27;;;12.00;92.90;;;;;;2048816;29;20187;-67
2021/08/23 03:34:35;;;;;;;2.15;1.20;;;12.00;92.90;;;;;;2048845;29;20184;-67
2021/08/23 03:35:36;;;;;;;1.07;0.97;;;12.00;92.70;;;;;;2048729;29;20234;-67
2021/08/23 03:36:37;;;;;;;1.00;1.00;;;12.00;92.70;;;;;;2048777;29;20373;-67
2021/08/23 03:37:37;;;;;;;1.27;0.70;;;12.00;92.70;;;;;;2049434;28;20270;-67
2021/08/23 03:38:38;;;;;;;1.33;1.23;;;12.00;92.70;;;;;;2049199;28;20180;-67
2021/08/23 03:39:39;;;;;;;1.40;1.20;;;12.00;92.70;;;;;;2049175;28;20753;-67
2021/08/23 03:40:40;;;;;;;2.53;1.07;;;12.10;92.60;;;;;;2049279;28;20266;-67
2021/08/23 03:41:41;;;;;;;1.20;1.10;;;12.10;92.50;;;;;;2048809;29;20231;-67
2021/08/23 03:42:41;;;;;;;1.67;1.37;;;12.10;92.50;;;;;;2048697;29;20891;-67
2021/08/23 03:43:42;;;;;;;4.20;1.37;;;12.10;92.50;;;;;;2049416;28;20179;-67
2021/08/23 03:44:43;;;;;;;1.13;1.00;;;12.20;92.50;;;;;;2049287;28;20210;-67
2021/08/23 03:45:44;;;;;;;0.97;0.80;;;12.20;92.50;;;;;;2049351;28;20420;-67
2021/08/23 03:46:44;;;;;;;1.80;0.73;;;12.20;92.50;;;;;;2049308;28;20192;-67
2021/08/23 03:47:45;;;;;;;1.40;0.90;;;12.10;92.50;;;;;;2049353;28;20180;-67
2021/08/23 03:48:46;;;;;;;1.00;0.70;;;12.10;92.70;;;;;;2049252;28;20207;-67
2021/08/23 03:49:47;;;;;;;1.57;0.87;;;12.10;92.70;;;;;;2048456;28;20254;-67
2021/08/23 03:50:47;;;;;;;1.30;0.80;;;12.10;92.60;;;;;;2040671;29;20188;-67
2021/08/23 03:51:48;;;;;;;1.13;1.03;;;12.10;92.60;;;;;;2048724;29;20636;-67
2021/08/23 03:52:49;;;;;;;2.20;1.27;;;12.10;92.50;;;;;;2049219;28;20187;-67
2021/08/23 03:53:50;;;;;;;0.97;0.90;;;12.10;92.50;;;;;;2049284;28;20626;-67
2021/08/23 03:54:50;;;;;;;1.40;1.30;;;12.10;92.50;;;;;;2049288;28;20262;-67
2021/08/23 03:55:51;;;;;;;2.23;1.40;;;12.10;92.50;;;;;;2049330;28;20336;-67
2021/08/23 03:56:52;;;;;;;2.00;1.20;;;12.10;92.50;;;;;;2048482;28;20222;-67
2021/08/23 03:57:53;;;;;;;2.30;1.00;;;12.10;92.50;;;;;;2048672;29;20196;-67
2021/08/23 03:58:53;;;;;;;1.03;0.80;;;12.20;92.50;;;;;;2048904;29;20175;-67
2021/08/23 03:59:54;;;;;;;1.30;1.20;;;12.10;92.40;;;;;;2040639;29;20233;-67
2021/08/23 04:00:58;;;;;;;3.23;1.03;;;12.20;92.50;;;;;;2040652;29;20224;-67
2021/08/23 04:01:58;;;;;;;2.33;1.10;;;12.20;92.40;;;;;;2049137;28;20183;-67
2021/08/23 04:02:59;;;;;;;1.10;0.97;;;12.20;92.40;;;;;;2049172;28;20219;-67
2021/08/23 04:04:00;;;;;;;5.10;1.57;;;12.30;92.30;;;;;;2048560;28;20183;-67
2021/08/23 04:05:01;;;;;;;1.97;1.33;;;12.30;92.20;;;;;;2048587;29;20183;-67
2021/08/23 04:06:01;;;;;;;1.40;1.00;;;12.40;92.10;;;;;;2049253;28;20187;-67
2021/08/23 04:07:03;;;;;;;1.73;1.27;;;12.30;92.30;;;;;;2049220;28;20620;-67
2021/08/23 04:08:04;;;;;;;2.85;1.38;;;12.30;92.30;;;;;;2048611;29;20191;-67
2021/08/23 04:09:04;;;;;;;1.83;0.85;;;12.30;92.30;;;;;;2048247;29;20594;-67
2021/08/23 04:10:06;;;;;;;1.63;1.27;;;12.30;92.40;;;;;;2049131;28;20214;-67
2021/08/23 04:11:10;;;;;;;3.22;1.20;;;12.30;92.40;;;;;;2048495;29;20192;-67
2021/08/23 04:12:11;;;;;;;0.85;0.85;;;12.30;92.40;;;;;;2048635;29;20278;-67
2021/08/23 04:13:12;;;;;;;1.37;1.10;;;12.40;92.40;;;;;;2049184;28;20184;-67
2021/08/23 04:14:13;;;;;;;2.47;1.30;;;12.40;92.40;;;;;;2048627;29;20426;-67
2021/08/23 04:15:13;;;;;;;3.50;1.40;;;12.40;92.40;;;;;;2048548;29;20581;-67
2021/08/23 04:16:18;;;;;;;1.57;1.20;;;12.40;92.40;;;;;;2048433;28;20324;-67
2021/08/23 04:17:19;;;;;;;1.05;0.90;;;12.40;92.40;;;;;;2041188;29;20564;-67
2021/08/23 04:18:19;;;;;;;2.07;1.20;;;12.40;92.40;;;;;;2048557;29;20179;-67
2021/08/23 04:19:20;;;;;;;0.77;0.77;;;12.40;92.50;;;;;;2048265;28;20180;-67
2021/08/23 04:20:21;;;;;;;1.03;0.70;;;12.40;92.60;;;;;;2048562;29;20187;-67
2021/08/23 04:21:22;;;;;;;1.52;0.93;;;12.40;92.60;;;;;;2049151;28;20271;-67
2021/08/23 04:22:23;;;;;;;1.33;1.23;;;12.30;92.20;;;;;;2049095;28;20188;-67
2021/08/23 04:23:23;;;;;;;2.57;1.30;;;12.30;92.30;;;;;;2049132;28;20187;-67
2021/08/23 04:24:24;;;;;;;0.80;0.80;;;12.30;92.40;;;;;;2049114;28;20551;-67
2021/08/23 04:25:25;;;;;;;1.57;1.03;;;12.30;92.50;;;;;;2048550;29;20191;-67
2021/08/23 04:26:26;;;;;;;1.67;1.10;;;12.20;92.60;;;;;;2048463;29;20180;-67
2021/08/23 04:27:27;;;;;;;0.80;0.80;;;12.20;92.70;;;;;;2049167;28;20603;-67
2021/08/23 04:28:28;;;;;;;0.90;0.90;;;12.30;92.80;;;;;;2049010;28;20191;-66
2021/08/23 04:29:29;;;;;;;3.50;1.20;;;12.30;92.70;;;;;;2048852;28;20202;-68
2021/08/23 04:30:29;;;;;;;0.90;0.90;;;12.30;92.60;;;;;;2049006;28;20233;-67
2021/08/23 04:31:31;;;;;;;1.40;1.30;;;12.20;92.50;;;;;;2049144;29;20266;-67
2021/08/23 04:32:32;;;;;;;1.40;1.30;;;12.20;92.40;;;;;;2049045;28;20187;-67
2021/08/23 04:33:32;;;;;;;1.53;1.07;;;12.20;92.40;;;;;;2048517;29;20214;-67
2021/08/23 04:34:33;;;;;;;5.13;1.77;;;12.20;92.20;;;;;;2048510;29;20261;-68
2021/08/23 04:35:33;;;;;;;1.67;1.40;;;12.20;92.30;;;;;;2049112;28;20188;-67
2021/08/23 04:36:35;;;;;;;9.37;1.47;;;12.20;92.20;;;;;;2049036;28;20702;-67
2021/08/23 04:37:36;;;;;;;1.08;1.00;;;12.10;92.10;;;;;;2048551;29;20184;-68
2021/08/23 04:38:36;;;;;;;1.70;1.43;;;12.10;92.10;;;;;;2048438;29;20732;-67
2021/08/23 04:39:37;;;;;;;2.80;1.20;;;12.10;92.20;;;;;;2048859;28;20195;-67
2021/08/23 04:40:38;;;;;;;3.13;1.20;;;12.00;92.20;;;;;;2049072;28;20183;-67
2021/08/23 04:41:42;;;;;;;1.40;1.30;;;12.00;92.30;;;;;;2049124;28;20249;-67
2021/08/23 04:42:42;;;;;;;1.38;1.13;;;12.00;92.40;;;;;;2048452;28;20678;-66
2021/08/23 04:43:43;;;;;;;1.63;1.00;;;12.10;92.50;;;;;;2050148;29;20228;-67
2021/08/23 04:44:44;;;;;;;1.83;1.37;;;12.10;92.30;;;;;;2050640;28;20194;-67
2021/08/23 04:45:45;;;;;;;1.13;1.00;;;12.10;91.90;;;;;;2050167;29;20198;-67
2021/08/23 04:46:49;;;;;;;1.33;0.90;;;12.00;91.90;;;;;;2050208;29;20196;-67
2021/08/23 04:47:49;;;;;;;1.42;1.23;;;12.00;92.20;;;;;;2050812;28;20192;-67
2021/08/23 04:48:52;;;;;;;1.57;1.07;;;11.90;92.30;;;;;;2049869;28;20213;-68
2021/08/23 04:49:52;;;;;;;1.80;1.30;;;11.90;92.30;;;;;;2050128;28;20201;-67
2021/08/23 04:50:53;;;;;;;1.23;1.10;;;11.90;92.30;;;;;;2050759;28;20183;-67
2021/08/23 04:51:54;;;;;;;4.43;1.10;;;11.80;92.30;;;;;;2050806;28;20643;-67
2021/08/23 04:52:54;;;;;;;1.20;1.00;;;11.70;92.60;;;;;;2050635;28;20201;-67
2021/08/23 04:53:56;;;;;;;1.97;1.10;;;11.70;92.80;;;;;;2050775;28;20180;-67
2021/08/23 04:55:00;;;;;;;2.40;1.30;;;11.70;92.80;;;;;;2049964;28;20183;-67
2021/08/23 04:56:01;;;;;;;3.03;1.42;;;11.60;92.90;;;;;;2048317;28;20216;-67
2021/08/23 04:57:02;;;;;;;1.10;1.00;;;11.70;93.00;;;;;;2055137;28;20357;-67
2021/08/23 04:58:04;;;;;;;1.60;1.20;;;11.70;93.00;;;;;;2049791;28;20183;-66
2021/08/23 04:59:04;;;;;;;1.55;1.02;;;11.80;93.10;;;;;;2050839;28;20278;-67
2021/08/23 05:00:10;;;;;;;1.53;1.10;;;11.80;93.10;;;;;;2053969;28;20215;-68
2021/08/23 05:01:11;;;;;;;1.65;0.90;;;11.90;93.10;;;;;;2055774;28;20183;-67
2021/08/23 05:02:12;;;;;;;1.38;1.08;;;11.90;92.90;;;;;;2058002;28;20246;-67
2021/08/23 05:03:13;;;;;;;1.90;1.43;;;11.90;92.90;;;;;;2057895;28;20721;-67
2021/08/23 05:04:13;;;;;;;1.50;1.23;;;12.00;92.80;;;;;;2058204;28;20332;-67
2021/08/23 05:05:14;;;;;;;1.63;1.53;;;12.00;92.70;;;;;;2058075;28;20175;-67
2021/08/23 05:06:15;;;;;;;1.67;1.00;;;12.00;92.80;;;;;;2057869;28;20179;-67
2021/08/23 05:07:16;;;;;;;7.88;1.73;;;12.00;92.80;;;;;;2057884;28;20839;-67
2021/08/23 05:08:19;;;;;;;1.10;1.00;;;12.10;92.70;;;;;;2057948;28;20262;-67
2021/08/23 05:09:20;;;;;;;1.42;1.10;;;12.10;92.60;;;;;;2049663;28;20184;-67
2021/08/23 05:10:20;;;;;;;1.47;0.90;;;12.20;92.60;;;;;;2057881;28;20697;-67
2021/08/23 05:11:21;;;;;;;5.00;1.50;;;12.30;92.60;;;;;;2058709;28;20234;-67
2021/08/23 05:12:22;;;;;;;2.53;1.37;;;12.30;92.50;;;;;;2057795;28;20752;-67
2021/08/23 05:13:22;;;;;;;1.30;1.20;;;12.40;92.30;;;;;;2058191;28;20190;-67
2021/08/23 05:14:23;;;;;;;1.07;0.97;;;12.40;92.10;;;;;;2058489;28;20654;-67
2021/08/23 05:15:24;;;;;;;1.43;1.33;;;12.40;91.90;;;;;;2058590;28;20321;-67
2021/08/23 05:16:25;;;;;;;1.35;1.20;;;12.40;92.00;;;;;;2058415;28;20180;-67
2021/08/23 05:17:26;;;;;;;1.80;1.50;;;12.40;92.10;;;;;;2058693;28;20536;-67
2021/08/23 05:18:26;;;;;;;2.20;1.23;;;12.40;92.20;;;;;;2058434;28;20532;-66
2021/08/23 05:19:27;;;;;;;3.43;1.67;;;12.50;92.10;;;;;;2057808;28;20179;-66
2021/08/23 05:20:28;;;;;;;1.40;1.20;;;12.50;92.00;;;;;;2058299;28;20172;-66
2021/08/23 05:21:28;;;;;;;1.20;0.97;;;12.60;92.70;;;;;;2058424;28;20646;-66
2021/08/23 05:22:29;;;;;;;0.90;0.90;;;12.60;92.00;;;;;;2058248;28;20183;-66